Time;durP1;ratioP1;P1;durP2;ratioP2;P2;SDS_P1;SDS_P2;PMS_P1;PMS_P2;Temp;Humidity;BMP_temperature;BMP_pressure;BME280_temperature;BME280_humidity;BME280_pressure;Samples;Min_cycle;Max_cycle;Signal;HPM_P1;HPM_P2
2023/06/08 00:02:06;;;;;;;10.02;8.73;;;;;;;-145.41;100.00;58600.66;4999548;28;20085;-79
2023/06/08 00:04:33;;;;;;;11.23;7.65;;;;;;;-145.41;100.00;58600.66;4998185;28;20469;-78
2023/06/08 00:07:03;;;;;;;9.50;8.23;;;;;;;-145.41;100.00;58600.66;5003390;28;20041;-78
2023/06/08 00:09:29;;;;;;;10.48;8.82;;;;;;;-145.41;100.00;58600.66;5000907;28;20069;-78
2023/06/08 00:11:55;;;;;;;9.30;8.40;;;;;;;-145.41;100.00;58600.66;4995877;28;20117;-79
2023/06/08 00:14:21;;;;;;;10.02;8.77;;;;;;;-145.41;100.00;58600.66;4998014;28;20093;-78
2023/06/08 00:16:48;;;;;;;9.65;8.15;;;;;;;-145.41;100.00;58600.66;5002258;28;20041;-78
2023/06/08 00:19:14;;;;;;;9.25;8.20;;;;;;;-145.41;100.00;58600.66;5003841;28;20869;-78
2023/06/08 00:21:42;;;;;;;9.70;8.70;;;;;;;-145.41;100.00;58600.66;5001038;28;20098;-78
2023/06/08 00:24:08;;;;;;;8.98;8.02;;;;;;;-145.41;100.00;58600.66;5001706;28;20523;-79
2023/06/08 00:26:33;;;;;;;8.70;7.78;;;;;;;-145.41;100.00;58600.66;5004529;28;20126;-79
2023/06/08 00:28:59;;;;;;;8.45;7.65;;;;;;;-145.41;100.00;58600.66;4997936;28;20398;-79
2023/06/08 00:31:24;;;;;;;8.48;7.28;;;;;;;-145.41;100.00;58600.66;5000727;28;20488;-79
2023/06/08 00:33:49;;;;;;;9.70;7.82;;;;;;;-145.41;100.00;58600.66;5006790;28;20484;-79
2023/06/08 00:36:17;;;;;;;10.52;7.55;;;;;;;-145.41;100.00;58600.66;5001278;28;20177;-78
2023/06/08 00:38:42;;;;;;;9.43;7.53;;;;;;;-145.41;100.00;58600.66;4994961;28;20113;-78
2023/06/08 00:41:08;;;;;;;8.75;7.85;;;;;;;-145.41;100.00;58600.66;4997432;28;20405;-78
2023/06/08 00:43:33;;;;;;;10.15;8.07;;;;;;;-145.41;100.00;58600.66;5002514;28;20034;-78
2023/06/08 00:46:01;;;;;;;10.98;8.63;;;;;;;-145.41;100.00;58600.66;5000071;28;20034;-78
2023/06/08 00:48:26;;;;;;;9.70;8.57;;;;;;;-145.41;100.00;58600.66;5002820;28;20397;-78
2023/06/08 00:50:55;;;;;;;8.48;7.57;;;;;;;-145.41;100.00;58600.66;4997796;28;20038;-78
2023/06/08 00:53:21;;;;;;;10.63;9.45;;;;;;;-145.41;100.00;58600.66;5005345;28;20099;-78
2023/06/08 00:55:51;;;;;;;9.20;8.30;;;;;;;-145.41;100.00;58600.66;5003243;28;20037;-79
2023/06/08 00:58:18;;;;;;;8.60;7.65;;;;;;;-145.41;100.00;58600.66;5001663;28;20420;-78
2023/06/08 01:00:46;;;;;;;10.07;8.95;;;;;;;-145.41;100.00;58600.66;4997791;28;20045;-77
2023/06/08 01:03:14;;;;;;;11.23;10.13;;;;;;;-145.41;100.00;58600.66;4998902;28;20038;-78
2023/06/08 01:05:43;;;;;;;12.52;11.30;;;;;;;-145.41;100.00;58600.66;5010733;28;20030;-78
2023/06/08 01:08:27;;;;;;;12.60;10.65;;;;;;;-145.41;100.00;58600.66;4992770;28;20118;-78
2023/06/08 01:11:16;;;;;;;11.80;10.57;;;;;;;-145.41;100.00;58600.66;5002727;28;20142;-78
2023/06/08 01:13:59;;;;;;;13.70;11.30;;;;;;;-145.41;100.00;58600.66;5002413;28;20034;-78
2023/06/08 01:16:31;;;;;;;12.35;11.07;;;;;;;-145.41;100.00;58600.66;4997712;28;20038;-78
2023/06/08 01:18:59;;;;;;;;;;;;;;;-145.41;100.00;58600.66;5000398;28;20120;-78
2023/06/08 01:21:49;;;;;;;12.15;11.05;;;;;;;-145.41;100.00;58600.66;5002154;28;20396;-78
2023/06/08 01:24:24;;;;;;;12.07;10.85;;;;;;;-145.41;100.00;58600.66;5001069;28;20037;-78
2023/06/08 01:26:50;;;;;;;13.15;10.77;;;;;;;-145.41;100.00;58600.66;4984747;28;20505;-78
2023/06/08 01:29:17;;;;;;;14.13;11.85;;;;;;;-145.41;100.00;58600.66;5000645;28;20030;-78
2023/06/08 01:31:43;;;;;;;15.48;14.07;;;;;;;-145.41;100.00;58600.66;4999056;28;20084;-78
2023/06/08 01:34:11;;;;;;;13.55;12.25;;;;;;;-145.41;100.00;58600.66;5000928;28;20034;-79
2023/06/08 01:37:02;;;;;;;14.73;13.15;;;;;;;-145.41;100.00;58600.66;5000457;28;20412;-78
2023/06/08 01:39:49;;;;;;;15.35;13.95;;;;;;;-145.41;100.00;58600.66;4982575;28;20038;-78
2023/06/08 01:42:18;;;;;;;15.30;13.80;;;;;;;-145.41;100.00;58600.66;4996739;28;20051;-79
2023/06/08 01:44:49;;;;;;;14.52;13.13;;;;;;;-145.41;100.00;58600.66;4999976;28;20049;-78
2023/06/08 01:47:16;;;;;;;15.18;13.60;;;;;;;-145.41;100.00;58600.66;5003766;28;20034;-78
2023/06/08 01:49:42;;;;;;;14.68;13.35;;;;;;;-145.41;100.00;58600.66;5000394;28;20054;-78
2023/06/08 01:52:09;;;;;;;14.73;13.23;;;;;;;-145.41;100.00;58600.66;5000389;28;20038;-78
2023/06/08 01:54:34;;;;;;;14.45;12.95;;;;;;;-145.41;100.00;58600.66;4982863;28;20038;-78
2023/06/08 01:57:00;;;;;;;16.92;15.27;;;;;;;-145.41;100.00;58600.66;4989142;28;20042;-78
2023/06/08 01:59:25;;;;;;;17.55;15.77;;;;;;;-145.41;100.00;58600.66;4995388;28;20035;-78
2023/06/08 02:01:51;;;;;;;15.80;14.18;;;;;;;-145.41;100.00;58600.66;4991457;28;20119;-79
2023/06/08 02:04:16;;;;;;;17.92;16.17;;;;;;;-145.41;100.00;58600.66;5005823;28;20484;-78
2023/06/08 02:06:41;;;;;;;16.80;15.20;;;;;;;-145.41;100.00;58600.66;5002705;28;20424;-78
2023/06/08 02:09:07;;;;;;;18.00;16.13;;;;;;;-145.41;100.00;58600.66;4998568;28;20047;-78
2023/06/08 02:11:32;;;;;;;16.75;15.23;;;;;;;-145.41;100.00;58600.66;5003859;28;20042;-78
2023/06/08 02:13:57;;;;;;;18.30;15.52;;;;;;;-145.41;100.00;58600.66;5006590;28;20025;-78
2023/06/08 02:16:23;;;;;;;17.95;15.95;;;;;;;-145.41;100.00;58600.66;4986437;28;20467;-78
2023/06/08 02:18:50;;;;;;;18.13;16.30;;;;;;;-145.41;100.00;58600.66;5006514;28;20032;-78
2023/06/08 02:21:18;;;;;;;19.60;17.65;;;;;;;-145.41;100.00;58600.66;5000871;28;20508;-78
2023/06/08 02:23:44;;;;;;;18.95;17.15;;;;;;;-145.41;100.00;58600.66;5012366;28;20033;-78
2023/06/08 02:26:10;;;;;;;18.52;16.48;;;;;;;-145.41;100.00;58600.66;5005018;28;20121;-78
2023/06/08 02:28:36;;;;;;;18.42;16.70;;;;;;;-145.41;100.00;58600.66;5003496;28;20223;-78
2023/06/08 02:31:05;;;;;;;19.17;16.95;;;;;;;-145.41;100.00;58600.66;5000360;28;20034;-78
2023/06/08 02:33:30;;;;;;;17.73;16.13;;;;;;;-145.41;100.00;58600.66;5000300;28;20030;-78
2023/06/08 02:35:56;;;;;;;19.08;17.10;;;;;;;-145.41;100.00;58600.66;4984941;28;20049;-78
2023/06/08 02:38:21;;;;;;;17.83;16.05;;;;;;;-145.41;100.00;58600.66;5000713;28;20042;-78
2023/06/08 02:40:47;;;;;;;17.05;14.90;;;;;;;-145.41;100.00;58600.66;5004448;28;20122;-78
2023/06/08 02:43:14;;;;;;;16.42;14.85;;;;;;;-145.41;100.00;58600.66;4996207;28;20030;-78
2023/06/08 02:45:41;;;;;;;17.25;15.55;;;;;;;-145.41;100.00;58600.66;4993438;28;20026;-78
2023/06/08 02:48:06;;;;;;;16.27;14.57;;;;;;;-145.41;100.00;58600.66;4996660;28;20037;-78
2023/06/08 02:50:32;;;;;;;15.82;14.23;;;;;;;-145.41;100.00;58600.66;5006124;28;20026;-78
2023/06/08 02:52:57;;;;;;;14.98;13.48;;;;;;;-145.41;100.00;58600.66;5003002;28;20382;-78
2023/06/08 02:55:23;;;;;;;15.70;14.20;;;;;;;-145.41;100.00;58600.66;4996069;28;20034;-78
2023/06/08 02:57:49;;;;;;;15.00;13.60;;;;;;;-145.41;100.00;58600.66;4999983;28;20061;-78
2023/06/08 03:00:15;;;;;;;14.63;13.23;;;;;;;-145.41;100.00;58600.66;4998084;28;20033;-78
2023/06/08 03:03:03;;;;;;;15.98;13.25;;;;;;;-145.41;100.00;58600.66;5007299;28;20046;-78
2023/06/08 03:05:34;;;;;;;14.07;12.75;;;;;;;-145.41;100.00;58600.66;4999215;28;20497;-78
2023/06/08 03:08:00;;;;;;;15.85;12.55;;;;;;;-145.41;100.00;58600.66;4987779;28;20030;-78
2023/06/08 03:10:26;;;;;;;15.23;12.82;;;;;;;-145.41;100.00;58600.66;5003930;28;20030;-78
2023/06/08 03:12:51;;;;;;;23.83;21.73;;;;;;;-145.41;100.00;58600.66;4999448;28;20038;-78
2023/06/08 03:15:22;;;;;;;14.70;13.20;;;;;;;-145.41;100.00;58600.66;4982736;28;20036;-78
2023/06/08 03:17:51;;;;;;;14.73;13.23;;;;;;;-145.41;100.00;58600.66;5004956;28;20055;-78
2023/06/08 03:20:17;;;;;;;14.98;12.80;;;;;;;-145.41;100.00;58600.66;4982424;28;20034;-79
2023/06/08 03:22:50;;;;;;;14.43;13.13;;;;;;;-145.41;100.00;58600.66;4993361;28;20113;-78
2023/06/08 03:25:16;;;;;;;13.93;12.60;;;;;;;-145.41;100.00;58600.66;4998584;28;20551;-78
2023/06/08 03:27:42;;;;;;;14.50;12.90;;;;;;;-145.41;100.00;58600.66;5002397;28;20105;-79
2023/06/08 03:30:11;;;;;;;14.57;13.15;;;;;;;-145.41;100.00;58600.66;4999864;28;20030;-78
2023/06/08 03:32:48;;;;;;;13.75;12.35;;;;;;;-145.41;100.00;58600.66;4988327;28;20409;-79
2023/06/08 03:35:15;;;;;;;14.05;12.75;;;;;;;-145.41;100.00;58600.66;4993880;28;20062;-78
2023/06/08 03:37:41;;;;;;;12.07;10.93;;;;;;;-145.41;100.00;58600.66;4990531;28;20038;-78
2023/06/08 03:40:07;;;;;;;12.10;10.90;;;;;;;-145.41;100.00;58600.66;4991638;28;20046;-78
2023/06/08 03:42:32;;;;;;;12.95;11.60;;;;;;;-145.41;100.00;58600.66;4997721;28;20043;-79
2023/06/08 03:44:58;;;;;;;13.07;11.20;;;;;;;-145.41;100.00;58600.66;4995230;28;20058;-79
2023/06/08 03:47:23;;;;;;;12.07;10.77;;;;;;;-145.41;100.00;58600.66;4994177;28;20071;-79
2023/06/08 03:49:50;;;;;;;11.85;10.75;;;;;;;-145.41;100.00;58600.66;5004617;28;20048;-78
2023/06/08 03:52:16;;;;;;;11.40;10.27;;;;;;;-145.41;100.00;58600.66;5002519;28;20031;-78
2023/06/08 03:54:41;;;;;;;10.52;9.45;;;;;;;-145.41;100.00;58600.66;5010768;28;20080;-79
2023/06/08 03:57:07;;;;;;;10.27;9.27;;;;;;;-145.41;100.00;58600.66;5007730;28;20039;-78
2023/06/08 03:59:33;;;;;;;9.48;8.57;;;;;;;-145.41;100.00;58600.66;4998664;28;20034;-79
2023/06/08 04:01:58;;;;;;;9.05;8.13;;;;;;;-145.41;100.00;58600.66;5010972;28;20030;-78
2023/06/08 04:04:24;;;;;;;9.95;8.80;;;;;;;-145.41;100.00;58600.66;5006403;28;20029;-79
2023/06/08 04:06:51;;;;;;;9.77;8.38;;;;;;;-145.41;100.00;58600.66;5000931;28;20030;-78
2023/06/08 04:09:16;;;;;;;9.88;8.80;;;;;;;-145.41;100.00;58600.66;5005007;28;20035;-79
2023/06/08 04:11:42;;;;;;;10.20;8.35;;;;;;;-145.41;100.00;58600.66;4986742;28;20033;-79
2023/06/08 04:14:07;;;;;;;10.52;9.48;;;;;;;-145.41;100.00;58600.66;4999500;28;20038;-78
2023/06/08 04:16:33;;;;;;;8.68;7.78;;;;;;;-145.41;100.00;58600.66;5005113;28;20037;-79
2023/06/08 04:18:59;;;;;;;9.98;8.05;;;;;;;-145.41;100.00;58600.66;4992604;28;20436;-79
2023/06/08 04:21:27;;;;;;;7.93;7.13;;;;;;;-145.41;100.00;58600.66;4999824;28;20038;-79
2023/06/08 04:23:58;;;;;;;8.77;7.85;;;;;;;-145.41;100.00;58600.66;5006375;28;20029;-79
2023/06/08 04:26:28;;;;;;;10.95;7.53;;;;;;;-145.41;100.00;58600.66;4988187;28;20101;-79
2023/06/08 04:28:54;;;;;;;8.55;6.60;;;;;;;-145.41;100.00;58600.66;5000185;28;20022;-78
2023/06/08 04:31:22;;;;;;;8.35;6.90;;;;;;;-145.41;100.00;58600.66;5006627;28;20041;-78
2023/06/08 04:33:50;;;;;;;8.77;6.80;;;;;;;-145.41;100.00;58600.66;5000691;28;20037;-79
2023/06/08 04:36:16;;;;;;;8.65;6.60;;;;;;;-145.41;100.00;58600.66;4989302;28;20034;-78
2023/06/08 04:38:42;;;;;;;7.55;6.55;;;;;;;-145.41;100.00;58600.66;4997505;28;20026;-79
2023/06/08 04:41:11;;;;;;;7.47;6.47;;;;;;;-145.41;100.00;58600.66;4974214;28;20031;-78
2023/06/08 04:43:36;;;;;;;8.77;6.03;;;;;;;-145.41;100.00;58600.66;5000225;28;20705;-79
2023/06/08 04:46:07;;;;;;;8.80;6.50;;;;;;;-145.41;100.00;58600.66;4980849;28;20034;-78
2023/06/08 04:48:35;;;;;;;7.68;6.68;;;;;;;-145.41;100.00;58600.66;5003134;28;20022;-78
2023/06/08 04:51:09;;;;;;;8.30;6.80;;;;;;;-145.41;100.00;58600.66;5002525;28;20040;-78
2023/06/08 04:53:37;;;;;;;9.35;7.90;;;;;;;-145.41;100.00;58600.66;5005611;28;20037;-78
2023/06/08 04:56:04;;;;;;;8.75;7.47;;;;;;;-145.41;100.00;58600.66;4994905;28;20401;-78
2023/06/08 04:58:30;;;;;;;9.25;8.13;;;;;;;-145.41;100.00;58600.66;4987493;28;20065;-78
2023/06/08 05:00:56;;;;;;;10.15;7.88;;;;;;;-145.41;100.00;58600.66;5003200;28;20799;-78
2023/06/08 05:03:23;;;;;;;13.20;9.93;;;;;;;-145.41;100.00;58600.66;4983152;28;20022;-78
2023/06/08 05:05:50;;;;;;;21.83;18.42;;;;;;;-145.41;100.00;58600.66;4999227;28;20061;-78
2023/06/08 05:08:16;;;;;;;12.68;11.38;;;;;;;-145.41;100.00;58600.66;5003576;28;20106;-78
2023/06/08 05:10:41;;;;;;;11.85;9.93;;;;;;;-145.41;100.00;58600.66;4999538;28;20065;-78
2023/06/08 05:13:07;;;;;;;12.93;11.63;;;;;;;-145.41;100.00;58600.66;5000251;28;20071;-78
2023/06/08 05:15:32;;;;;;;9.63;8.07;;;;;;;-145.41;100.00;58600.66;5003352;28;20029;-79
2023/06/08 05:17:58;;;;;;;10.40;7.00;;;;;;;-145.41;100.00;58600.66;5001150;28;20042;-79
2023/06/08 05:20:25;;;;;;;9.27;7.22;;;;;;;-145.41;100.00;58600.66;4999858;28;20107;-78
2023/06/08 05:22:52;;;;;;;7.88;6.32;;;;;;;-145.41;100.00;58600.66;5000605;28;20061;-79
2023/06/08 05:25:17;;;;;;;8.13;7.10;;;;;;;-145.41;100.00;58600.66;5002539;28;20022;-79
2023/06/08 05:27:43;;;;;;;8.77;7.35;;;;;;;-145.41;100.00;58600.66;5000917;28;20037;-78
2023/06/08 05:30:09;;;;;;;8.50;6.65;;;;;;;-145.41;100.00;58600.66;5003450;28;20824;-79
2023/06/08 05:32:34;;;;;;;8.05;6.13;;;;;;;-145.41;100.00;58600.66;4995735;28;20038;-78
2023/06/08 05:35:00;;;;;;;9.43;7.78;;;;;;;-145.41;100.00;58600.66;4999321;28;20041;-78
2023/06/08 05:37:26;;;;;;;12.73;11.43;;;;;;;-145.41;100.00;58600.66;5000331;28;20041;-79
2023/06/08 05:39:51;;;;;;;11.80;9.77;;;;;;;-145.41;100.00;58600.66;5004731;28;20061;-79
2023/06/08 05:42:17;;;;;;;9.07;7.55;;;;;;;-145.41;100.00;58600.66;5007175;28;20034;-79
2023/06/08 05:44:42;;;;;;;8.50;6.90;;;;;;;-145.41;100.00;58600.66;5001162;28;20110;-79
2023/06/08 05:47:07;;;;;;;12.32;11.13;;;;;;;-145.41;100.00;58600.66;5004303;28;20046;-79
2023/06/08 05:49:33;;;;;;;9.55;7.55;;;;;;;-145.41;100.00;58600.66;5001993;28;20097;-79
2023/06/08 05:51:58;;;;;;;14.43;9.68;;;;;;;-145.41;100.00;58600.66;5003561;28;20049;-79
2023/06/08 05:54:23;;;;;;;10.43;9.30;;;;;;;-145.41;100.00;58600.66;5002739;28;20116;-79
2023/06/08 05:56:50;;;;;;;11.55;10.43;;;;;;;-145.41;100.00;58600.66;4998633;28;20108;-79
2023/06/08 05:59:15;;;;;;;9.05;7.40;;;;;;;-145.41;100.00;58600.66;5001092;28;20026;-79
2023/06/08 06:01:41;;;;;;;8.85;7.75;;;;;;;-145.41;100.00;58600.66;4995657;28;20468;-79
2023/06/08 06:04:07;;;;;;;8.63;7.40;;;;;;;-145.41;100.00;58600.66;5003464;28;20452;-79
2023/06/08 06:06:32;;;;;;;13.77;9.07;;;;;;;-145.41;100.00;58600.66;5003420;28;20160;-79
2023/06/08 06:08:58;;;;;;;8.63;6.22;;;;;;;-145.41;100.00;58600.66;5000722;28;20112;-79
2023/06/08 06:11:23;;;;;;;9.00;6.32;;;;;;;-145.41;100.00;58600.66;5000985;28;20091;-79
2023/06/08 06:13:49;;;;;;;10.25;9.18;;;;;;;-145.41;100.00;58600.66;5004945;28;20050;-79
2023/06/08 06:16:14;;;;;;;8.82;5.78;;;;;;;-145.41;100.00;58600.66;5003376;28;20034;-79
2023/06/08 06:18:40;;;;;;;7.57;6.80;;;;;;;-145.41;100.00;58600.66;5003489;28;20069;-79
2023/06/08 06:21:05;;;;;;;12.23;10.35;;;;;;;-145.41;100.00;58600.66;5003853;28;20042;-79
2023/06/08 06:23:30;;;;;;;10.90;9.80;;;;;;;-145.41;100.00;58600.66;5010771;28;20037;-79
2023/06/08 06:25:58;;;;;;;6.60;5.72;;;;;;;-145.41;100.00;58600.66;5002434;28;20030;-79
2023/06/08 06:28:23;;;;;;;11.35;10.13;;;;;;;-145.41;100.00;58600.66;4997173;28;20036;-79
2023/06/08 06:30:48;;;;;;;7.78;6.97;;;;;;;-145.41;100.00;58600.66;4998722;28;20042;-79
2023/06/08 06:33:13;;;;;;;9.43;6.60;;;;;;;-145.41;100.00;58600.66;5007678;28;20121;-79
2023/06/08 06:35:39;;;;;;;10.50;7.78;;;;;;;-145.41;100.00;58600.66;4999336;28;20054;-79
2023/06/08 06:38:04;;;;;;;7.38;6.38;;;;;;;-145.41;100.00;58600.66;5001474;28;20049;-78
2023/06/08 06:40:30;;;;;;;12.57;9.98;;;;;;;-145.41;100.00;58600.66;5005887;28;20496;-79
2023/06/08 06:42:56;;;;;;;8.52;7.60;;;;;;;-145.41;100.00;58600.66;4999421;28;20047;-79
2023/06/08 06:45:23;;;;;;;7.40;5.95;;;;;;;-145.41;100.00;58600.66;5003223;28;20033;-79
2023/06/08 06:47:49;;;;;;;9.02;6.63;;;;;;;-145.41;100.00;58600.66;5000690;28;20018;-79
2023/06/08 06:50:14;;;;;;;8.35;7.47;;;;;;;-145.41;100.00;58600.66;5001952;28;20034;-79
2023/06/08 06:52:40;;;;;;;6.80;6.10;;;;;;;-145.41;100.00;58600.66;4998744;28;20034;-79
2023/06/08 06:55:05;;;;;;;7.43;5.82;;;;;;;-145.41;100.00;58600.66;5000107;28;20060;-79
2023/06/08 06:57:32;;;;;;;7.50;6.60;;;;;;;-145.41;100.00;58600.66;4997427;28;20030;-79
2023/06/08 06:59:58;;;;;;;9.02;6.40;;;;;;;-145.41;100.00;58600.66;4994525;28;20038;-78
2023/06/08 07:02:25;;;;;;;7.28;5.38;;;;;;;-145.41;100.00;58600.66;5000761;28;20038;-79
2023/06/08 07:04:52;;;;;;;9.30;5.20;;;;;;;-145.41;100.00;58600.66;5022015;22;20045;-81
2023/06/08 07:07:18;;;;;;;11.05;7.70;;;;;;;-145.41;100.00;58600.66;5021366;28;20029;-81
2023/06/08 07:09:43;;;;;;;8.43;7.43;;;;;;;-145.41;100.00;58600.66;5005954;28;20038;-81
2023/06/08 07:12:09;;;;;;;7.85;7.05;;;;;;;-145.41;100.00;58600.66;5007467;28;20123;-81
2023/06/08 07:14:35;;;;;;;7.40;5.03;;;;;;;-145.41;100.00;58600.66;5010359;28;20041;-82
2023/06/08 07:17:00;;;;;;;6.03;5.07;;;;;;;-145.41;100.00;58600.66;5012689;28;20038;-81
2023/06/08 07:19:25;;;;;;;7.15;5.55;;;;;;;-145.41;100.00;58600.66;5010053;28;20041;-81
2023/06/08 07:21:52;;;;;;;7.70;5.85;;;;;;;-145.41;100.00;58600.66;5010505;28;20452;-81
2023/06/08 07:24:18;;;;;;;6.63;5.20;;;;;;;-145.41;100.00;58600.66;5010265;28;20489;-81
2023/06/08 07:26:45;;;;;;;7.78;5.60;;;;;;;-145.41;100.00;58600.66;5011554;28;20049;-82
2023/06/08 07:29:11;;;;;;;7.72;5.18;;;;;;;-145.41;100.00;58600.66;5009770;28;20037;-81
2023/06/08 07:31:39;;;;;;;7.97;5.82;;;;;;;-145.41;100.00;58600.66;5009379;28;20092;-81
2023/06/08 07:34:06;;;;;;;8.20;5.72;;;;;;;-145.41;100.00;58600.66;5009599;28;20503;-81
2023/06/08 07:36:32;;;;;;;8.82;6.30;;;;;;;-145.41;100.00;58600.66;5011311;28;20089;-81
2023/06/08 07:38:57;;;;;;;9.20;6.45;;;;;;;-145.41;100.00;58600.66;5009502;28;20128;-82
2023/06/08 07:41:26;;;;;;;7.95;5.95;;;;;;;-145.41;100.00;58600.66;5011262;28;20076;-81
2023/06/08 07:43:51;;;;;;;7.57;5.93;;;;;;;-145.41;100.00;58600.66;5011991;28;20070;-82
2023/06/08 07:46:17;;;;;;;7.70;5.97;;;;;;;-145.41;100.00;58600.66;4993100;28;20084;-82
2023/06/08 07:48:42;;;;;;;7.40;5.57;;;;;;;-145.41;100.00;58600.66;5006287;28;20099;-82
2023/06/08 07:51:08;;;;;;;7.18;5.43;;;;;;;-145.41;100.00;58600.66;5009408;28;20033;-82
2023/06/08 07:53:35;;;;;;;7.45;5.00;;;;;;;-145.41;100.00;58600.66;5011026;28;20034;-81
2023/06/08 07:56:01;;;;;;;7.43;5.70;;;;;;;-145.41;100.00;58600.66;5011470;28;20055;-81
2023/06/08 07:58:26;;;;;;;9.20;7.75;;;;;;;-145.41;100.00;58600.66;5010074;28;20107;-82
2023/06/08 08:00:51;;;;;;;9.05;6.55;;;;;;;-145.41;100.00;58600.66;5010202;28;20076;-82
2023/06/08 08:03:16;;;;;;;12.02;9.98;;;;;;;-145.41;100.00;58600.66;5012292;28;20129;-82
2023/06/08 08:05:42;;;;;;;8.98;6.63;;;;;;;-145.41;100.00;58600.66;5010605;28;20046;-81
2023/06/08 08:08:07;;;;;;;9.80;8.80;;;;;;;-145.41;100.00;58600.66;5009150;28;20048;-82
2023/06/08 08:10:32;;;;;;;7.82;6.28;;;;;;;-145.41;100.00;58600.66;5009847;28;20022;-81
2023/06/08 08:12:58;;;;;;;8.48;7.53;;;;;;;-145.41;100.00;58600.66;5009981;28;20389;-82
2023/06/08 08:15:23;;;;;;;11.10;7.18;;;;;;;-145.41;100.00;58600.66;5011041;28;20459;-81
2023/06/08 08:17:49;;;;;;;8.95;6.40;;;;;;;-145.41;100.00;58600.66;5011083;28;20037;-82
2023/06/08 08:20:14;;;;;;;7.15;5.00;;;;;;;-145.41;100.00;58600.66;5011117;28;20510;-81
2023/06/08 08:22:39;;;;;;;9.13;6.50;;;;;;;-145.41;100.00;58600.66;5011311;28;20476;-81
2023/06/08 08:25:07;;;;;;;9.48;5.20;;;;;;;-145.41;100.00;58600.66;5011191;28;20041;-81
2023/06/08 08:27:32;;;;;;;8.07;5.80;;;;;;;-145.41;100.00;58600.66;5012010;28;20033;-82
2023/06/08 08:29:57;;;;;;;8.60;7.70;;;;;;;-145.41;100.00;58600.66;5011639;28;20038;-82
2023/06/08 08:32:23;;;;;;;8.90;7.25;;;;;;;-145.41;100.00;58600.66;5011939;28;20040;-82
2023/06/08 08:34:50;;;;;;;9.93;7.72;;;;;;;-145.41;100.00;58600.66;5009955;28;20030;-81
2023/06/08 08:37:17;;;;;;;9.90;8.05;;;;;;;-145.41;100.00;58600.66;5010911;28;20103;-82
2023/06/08 08:39:42;;;;;;;7.38;6.03;;;;;;;-145.41;100.00;58600.66;5013145;28;20036;-82
2023/06/08 08:42:10;;;;;;;9.30;7.18;;;;;;;-145.41;100.00;58600.66;5013509;28;20034;-82
2023/06/08 08:44:36;;;;;;;7.82;7.03;;;;;;;-145.41;100.00;58600.66;5011591;28;20035;-81
2023/06/08 08:47:04;;;;;;;9.45;7.80;;;;;;;-145.41;100.00;58600.66;5014814;28;20040;-82
2023/06/08 08:49:32;;;;;;;9.07;7.82;;;;;;;-145.41;100.00;58600.66;5012726;28;20022;-82
2023/06/08 08:52:01;;;;;;;9.93;6.10;;;;;;;-145.41;100.00;58600.66;5015078;28;20144;-82
2023/06/08 08:54:33;;;;;;;8.32;5.47;;;;;;;-145.41;100.00;58600.66;5013314;28;20477;-82
2023/06/08 08:57:00;;;;;;;9.55;6.55;;;;;;;-145.41;100.00;58600.66;5013653;28;20044;-81
2023/06/08 08:59:29;;;;;;;9.38;7.35;;;;;;;-145.41;100.00;58600.66;5014227;28;20072;-81
2023/06/08 09:01:57;;;;;;;11.32;9.23;;;;;;;-145.41;100.00;58600.66;5012325;28;20041;-82
2023/06/08 09:04:23;;;;;;;10.48;6.88;;;;;;;-145.41;100.00;58600.66;5017289;28;20048;-83
2023/06/08 09:06:50;;;;;;;8.88;6.13;;;;;;;-145.41;100.00;58600.66;5012809;28;20042;-81
2023/06/08 09:09:16;;;;;;;11.48;9.55;;;;;;;-145.41;100.00;58600.66;5013130;28;20026;-82
2023/06/08 09:11:58;;;;;;;8.25;5.85;;;;;;;-145.41;100.00;58600.66;5014256;28;20038;-81
2023/06/08 09:14:23;;;;;;;7.95;7.15;;;;;;;-145.41;100.00;58600.66;5013812;28;20048;-82
2023/06/08 09:16:49;;;;;;;9.30;8.10;;;;;;;-145.41;100.00;58600.66;5014604;28;20493;-82
2023/06/08 09:19:15;;;;;;;9.95;6.88;;;;;;;-145.41;100.00;58600.66;5012910;28;20037;-82
2023/06/08 09:21:41;;;;;;;7.72;6.03;;;;;;;-145.41;100.00;58600.66;5013917;28;20102;-82
2023/06/08 09:24:14;;;;;;;6.32;5.00;;;;;;;-145.41;100.00;58600.66;5012372;28;20038;-81
2023/06/08 09:26:49;;;;;;;9.13;7.97;;;;;;;-145.41;100.00;58600.66;5012478;28;20392;-81
2023/06/08 09:29:40;;;;;;;11.52;10.02;;;;;;;-145.41;100.00;58600.66;5009082;28;20116;-82
2023/06/08 09:32:09;;;;;;;7.45;5.35;;;;;;;-145.41;100.00;58600.66;5012712;28;20048;-82
2023/06/08 09:34:56;;;;;;;11.02;6.03;;;;;;;-145.41;100.00;58600.66;5014151;28;20042;-83
2023/06/08 09:37:26;;;;;;;8.43;5.60;;;;;;;-145.41;100.00;58600.66;5011187;28;20033;-81
2023/06/08 09:39:51;;;;;;;9.05;6.53;;;;;;;-145.41;100.00;58600.66;5011838;28;20046;-82
2023/06/08 09:42:16;;;;;;;7.90;6.72;;;;;;;-145.41;100.00;58600.66;5008457;28;20060;-82
2023/06/08 09:44:42;;;;;;;9.82;8.32;;;;;;;-145.41;100.00;58600.66;5011798;28;20064;-82
2023/06/08 09:47:27;;;;;;;14.68;7.72;;;;;;;-145.41;100.00;58600.66;5011692;28;20050;-82
2023/06/08 09:49:54;;;;;;;9.23;7.25;;;;;;;-145.41;100.00;58600.66;5008242;28;20037;-81
2023/06/08 09:52:21;;;;;;;8.93;7.75;;;;;;;-145.41;100.00;58600.66;5008595;28;20492;-82
2023/06/08 09:54:46;;;;;;;12.25;10.25;;;;;;;-145.41;100.00;58600.66;5011936;28;20044;-82
2023/06/08 09:57:14;;;;;;;13.15;10.10;;;;;;;-145.41;100.00;58600.66;5011382;28;20116;-81
2023/06/08 09:59:44;;;;;;;11.02;9.88;;;;;;;-145.41;100.00;58600.66;5011283;28;20420;-82
2023/06/08 10:02:28;;;;;;;8.73;6.50;;;;;;;-145.41;100.00;58600.66;5009501;28;20062;-82
2023/06/08 10:04:55;;;;;;;8.77;6.13;;;;;;;-145.41;100.00;58600.66;5012394;28;20045;-82
2023/06/08 10:07:25;;;;;;;7.47;5.07;;;;;;;-145.41;100.00;58600.66;5010092;28;20062;-81
2023/06/08 10:09:59;;;;;;;9.32;8.10;;;;;;;-145.41;100.00;58600.66;5007814;28;20373;-81
2023/06/08 10:12:27;;;;;;;9.10;8.13;;;;;;;-145.41;100.00;58600.66;5010649;28;20096;-81
2023/06/08 10:14:53;;;;;;;6.15;5.05;;;;;;;-145.41;100.00;58600.66;5014155;28;20037;-82
2023/06/08 10:17:19;;;;;;;7.80;6.50;;;;;;;-145.41;100.00;58600.66;5010105;28;20037;-83
2023/06/08 10:19:44;;;;;;;7.10;6.40;;;;;;;-145.41;100.00;58600.66;5011969;28;20504;-82
2023/06/08 10:22:10;;;;;;;6.90;5.13;;;;;;;-145.41;100.00;58600.66;5012546;28;20115;-82
2023/06/08 10:24:37;;;;;;;8.48;7.03;;;;;;;-145.41;100.00;58600.66;5012862;28;20167;-83
2023/06/08 10:27:24;;;;;;;8.50;7.22;;;;;;;-145.41;100.00;58600.66;5013105;28;20046;-82
2023/06/08 10:29:54;;;;;;;8.20;6.65;;;;;;;-145.41;100.00;58600.66;5009288;28;20038;-82
2023/06/08 10:32:28;;;;;;;12.00;9.88;;;;;;;-145.41;100.00;58600.66;5009352;28;20515;-82
2023/06/08 10:34:57;;;;;;;8.82;7.93;;;;;;;-145.41;100.00;58600.66;5009419;28;20377;-83
2023/06/08 10:37:30;;;;;;;11.13;8.65;;;;;;;-145.41;100.00;58600.66;5012521;28;20042;-80
2023/06/08 10:40:00;;;;;;;7.10;6.22;;;;;;;-145.41;100.00;58600.66;5006870;28;20128;-81
2023/06/08 10:42:26;;;;;;;11.45;9.77;;;;;;;-145.41;100.00;58600.66;5013059;28;20061;-81
2023/06/08 10:44:57;;;;;;;8.45;6.53;;;;;;;-145.41;100.00;58600.66;5013568;28;20045;-81
2023/06/08 10:47:23;;;;;;;9.02;6.95;;;;;;;-145.41;100.00;58600.66;5011554;28;20448;-81
2023/06/08 10:50:01;;;;;;;12.80;8.80;;;;;;;-145.41;100.00;58600.66;5012424;28;20030;-82
2023/06/08 10:52:38;;;;;;;10.55;8.90;;;;;;;-145.41;100.00;58600.66;5013114;28;20113;-82
2023/06/08 10:55:13;;;;;;;5.97;5.20;;;;;;;-145.41;100.00;58600.66;5012944;28;20090;-81
2023/06/08 10:57:46;;;;;;;6.65;5.15;;;;;;;-145.41;100.00;58600.66;5012078;28;20046;-82
2023/06/08 11:00:21;;;;;;;10.77;6.95;;;;;;;-145.41;100.00;58600.66;5011604;28;20041;-82
2023/06/08 11:02:48;;;;;;;8.02;5.13;;;;;;;-145.41;100.00;58600.66;5008535;28;20384;-80
2023/06/08 11:05:14;;;;;;;7.65;5.75;;;;;;;-145.41;100.00;58600.66;5008272;28;20408;-80
2023/06/08 11:07:40;;;;;;;12.50;10.60;;;;;;;-145.41;100.00;58600.66;5010277;28;20025;-80